createdAt,value
2022-08-12T07:07:19.290Z,2.70
2022-08-12T07:10:03.957Z,2.70
2022-08-12T07:12:34.462Z,3.22
2022-08-12T07:15:02.327Z,3.03
2022-08-12T07:17:36.461Z,2.17
2022-08-12T07:20:29.495Z,2.10
2022-08-12T07:22:58.735Z,1.75
2022-08-12T07:25:37.702Z,2.05
2022-08-12T07:28:08.992Z,1.60
2022-08-12T07:30:45.528Z,1.65
2022-08-12T07:33:13.725Z,2.53
2022-08-12T07:35:50.882Z,4.28
2022-08-12T07:38:36.097Z,4.20
2022-08-12T07:41:15.615Z,3.97
2022-08-12T07:44:03.867Z,4.22
2022-08-12T07:46:39.482Z,5.07
2022-08-12T07:49:10.555Z,5.40
2022-08-12T07:54:09.857Z,5.43
2022-08-12T07:56:39.943Z,5.28
2022-08-12T07:59:08.742Z,5.70
2022-08-12T08:01:38.213Z,19.02
2022-08-12T08:04:24.956Z,12.05
2022-08-12T08:06:52.728Z,9.82
2022-08-12T08:09:23.046Z,8.68
2022-08-12T08:12:10.055Z,8.70
2022-08-12T08:14:49.845Z,8.20
2022-08-12T08:17:18.150Z,6.28
2022-08-12T08:20:03.081Z,6.40
2022-08-12T08:22:41.590Z,6.03
2022-08-12T08:25:34.517Z,6.35
2022-08-12T08:28:01.265Z,8.48
2022-08-12T08:30:30.941Z,8.02
2022-08-12T08:32:58.948Z,6.95
2022-08-12T08:35:37.785Z,9.20
2022-08-12T08:38:30.091Z,9.50
2022-08-12T08:42:16.226Z,8.52
2022-08-12T08:44:06.944Z,7.75
2022-08-12T08:46:38.113Z,7.80
2022-08-12T08:49:06.539Z,6.82
2022-08-12T08:51:34.632Z,6.95
2022-08-12T08:54:02.263Z,6.47
2022-08-12T08:56:30.491Z,5.10
2022-08-12T08:58:58.388Z,4.80
2022-08-12T09:01:38.037Z,4.97
2022-08-12T09:05:11.821Z,5.10
2022-08-12T09:06:58.666Z,5.40
2022-08-12T09:12:36.093Z,6.03
2022-08-12T09:17:56.916Z,5.30
2022-08-12T09:20:30.957Z,4.88
2022-08-12T09:22:59.029Z,4.43
2022-08-12T09:25:33.316Z,4.93
2022-08-12T09:28:18.208Z,3.92
2022-08-12T09:30:48.740Z,4.38
2022-08-12T09:33:19.170Z,4.80
2022-08-12T09:36:05.502Z,4.95
2022-08-12T09:38:35.331Z,3.70
2022-08-12T09:44:37.978Z,3.67
2022-08-12T09:46:59.003Z,3.42
2022-08-12T09:49:27.950Z,3.03
2022-08-12T09:51:55.816Z,3.28
2022-08-12T09:54:33.522Z,2.80
2022-08-12T09:58:45.162Z,3.15
2022-08-12T10:00:17.030Z,3.17
2022-08-12T10:03:05.825Z,3.40
2022-08-12T10:06:26.415Z,2.90
2022-08-12T10:08:30.667Z,3.13
2022-08-12T10:11:20.622Z,3.00
2022-08-12T10:13:50.256Z,2.97
2022-08-12T10:16:22.473Z,3.72
2022-08-12T10:19:00.003Z,3.45
2022-08-12T10:21:37.375Z,3.28
2022-08-12T10:24:07.309Z,3.90
2022-08-12T10:26:55.451Z,5.80
2022-08-12T10:30:37.889Z,6.50
2022-08-12T10:32:43.938Z,4.72
2022-08-12T10:35:15.693Z,4.80
2022-08-12T10:38:39.155Z,5.45
2022-08-12T10:40:36.287Z,5.83
2022-08-12T10:43:24.003Z,6.50
2022-08-12T10:45:51.979Z,6.95
2022-08-12T10:48:27.056Z,7.30
2022-08-12T10:51:52.360Z,7.68
2022-08-12T10:54:00.902Z,8.20
2022-08-12T10:56:35.412Z,7.97
2022-08-12T10:59:05.594Z,8.52
2022-08-12T11:04:14.628Z,9.13
2022-08-12T11:04:44.832Z,9.27
2022-08-12T11:08:36.372Z,9.55
2022-08-12T11:10:05.741Z,9.70
2022-08-12T11:12:54.658Z,9.98
2022-08-12T11:15:32.879Z,10.43
2022-08-12T11:18:18.763Z,10.50
2022-08-12T11:20:48.242Z,11.02
2022-08-12T11:23:25.601Z,11.77
2022-08-12T11:26:06.533Z,11.77
2022-08-12T11:28:37.589Z,12.80
2022-08-12T11:31:14.043Z,12.48
2022-08-12T11:34:05.750Z,12.68
2022-08-12T11:36:31.005Z,12.55
2022-08-12T11:39:04.159Z,13.02
2022-08-12T11:41:34.832Z,13.25
2022-08-12T11:44:35.510Z,13.07
2022-08-12T11:46:52.838Z,13.27
2022-08-12T11:49:30.532Z,13.93
2022-08-12T11:52:02.993Z,11.95
2022-08-12T11:54:31.649Z,13.00
2022-08-12T11:57:02.292Z,12.77
2022-08-12T12:02:20.417Z,12.40
2022-08-12T12:04:52.622Z,12.40
2022-08-12T12:08:39.005Z,12.68
2022-08-12T12:10:13.191Z,12.60
2022-08-12T12:12:49.683Z,15.98
2022-08-12T12:15:25.049Z,13.07
2022-08-12T12:18:06.532Z,12.75
2022-08-12T12:20:35.217Z,12.63
2022-08-12T12:23:04.102Z,13.20
2022-08-12T12:25:59.729Z,13.32
2022-08-12T12:28:37.131Z,13.23
2022-08-12T12:31:15.041Z,13.93
2022-08-12T12:33:58.318Z,13.55
2022-08-12T12:36:29.990Z,14.77
2022-08-12T12:38:59.969Z,13.60
2022-08-12T12:42:43.677Z,14.10
2022-08-12T12:44:26.015Z,14.63
2022-08-12T12:47:29.374Z,14.52
2022-08-12T12:49:53.753Z,15.18
2022-08-12T12:52:21.547Z,14.82
2022-08-12T12:54:55.856Z,14.27
2022-08-12T12:57:58.937Z,15.10
2022-08-12T13:00:15.628Z,14.70
2022-08-12T13:02:55.572Z,15.13
2022-08-12T13:05:27.601Z,15.45
2022-08-12T13:08:01.693Z,16.10
2022-08-12T13:10:37.105Z,15.35
2022-08-12T13:14:07.579Z,15.57
2022-08-12T13:15:59.359Z,16.08
2022-08-12T13:18:31.669Z,17.05
2022-08-12T13:20:59.368Z,16.75
2022-08-12T13:23:36.236Z,15.90
2022-08-12T13:26:05.457Z,15.88
2022-08-12T13:28:33.038Z,16.38
2022-08-12T13:31:00.709Z,15.50
2022-08-12T13:33:29.327Z,16.55
2022-08-12T13:36:18.233Z,16.40
2022-08-12T13:38:52.164Z,16.60
2022-08-12T13:41:34.208Z,14.98
2022-08-12T13:44:06.580Z,15.70
2022-08-12T13:46:40.960Z,15.45
2022-08-12T13:49:11.643Z,14.85
2022-08-12T13:51:51.323Z,14.18
2022-08-12T13:54:19.663Z,14.75
2022-08-12T13:56:50.200Z,14.48
2022-08-12T13:59:20.530Z,15.02
2022-08-12T14:01:53.612Z,14.10
2022-08-12T14:04:24.816Z,13.70
2022-08-12T14:06:54.111Z,13.32
2022-08-12T14:09:21.877Z,14.23
2022-08-12T14:11:58.340Z,14.30
2022-08-12T14:14:31.553Z,14.20
2022-08-12T14:17:10.372Z,14.18
2022-08-12T14:20:00.533Z,13.40
2022-08-12T14:22:30.374Z,13.13
2022-08-12T14:25:00.518Z,13.32
2022-08-12T14:28:03.611Z,13.15
2022-08-12T14:30:28.782Z,15.30
2022-08-12T14:32:57.916Z,15.15
2022-08-12T14:35:25.427Z,13.45
2022-08-12T14:37:56.753Z,13.10
2022-08-12T14:40:29.273Z,12.68
2022-08-12T14:42:58.463Z,12.07
2022-08-12T14:45:45.292Z,13.30
2022-08-12T14:48:16.136Z,11.38
2022-08-12T14:51:30.369Z,11.05
2022-08-12T14:59:56.924Z,10.15
2022-08-12T15:02:17.304Z,9.13
2022-08-12T15:04:45.432Z,9.88
2022-08-12T15:07:33.828Z,9.80
2022-08-12T15:10:01.698Z,9.13
2022-08-12T15:12:30.247Z,9.50
2022-08-12T15:14:59.986Z,10.00
2022-08-12T15:17:37.873Z,10.68
2022-08-12T15:20:32.040Z,10.35
2022-08-12T15:22:58.198Z,10.65
2022-08-12T15:25:27.978Z,9.57
2022-08-12T15:28:05.411Z,10.27
2022-08-12T15:30:39.076Z,10.57
2022-08-12T15:33:12.894Z,9.95
2022-08-12T15:35:52.010Z,11.05
2022-08-12T15:38:25.096Z,11.05
2022-08-12T15:40:54.716Z,10.95
2022-08-12T15:43:51.020Z,11.43
2022-08-12T15:46:15.094Z,11.98
2022-08-12T15:48:47.733Z,12.98
2022-08-12T15:51:59.946Z,12.57
2022-08-12T15:54:33.612Z,13.30
2022-08-12T15:57:07.818Z,14.73
2022-08-12T15:59:51.377Z,14.30
2022-08-12T16:02:29.925Z,14.70
2022-08-12T16:04:58.394Z,15.02
2022-08-12T16:07:31.060Z,14.20
2022-08-12T16:10:09.286Z,14.63
2022-08-12T16:12:55.064Z,15.60
2022-08-12T16:15:26.390Z,14.75
2022-08-12T16:18:18.522Z,16.50
2022-08-12T16:20:46.783Z,15.40
2022-08-12T16:23:26.483Z,16.15
2022-08-12T16:26:15.259Z,16.73
2022-08-12T16:28:47.618Z,15.27
2022-08-12T16:31:23.257Z,13.98
2022-08-12T16:33:56.751Z,12.93
2022-08-12T16:36:30.504Z,13.07
2022-08-12T16:39:01.403Z,13.15
2022-08-12T16:41:37.981Z,13.73
2022-08-12T16:44:09.033Z,14.70
2022-08-12T16:46:39.828Z,14.05
2022-08-12T16:49:09.176Z,13.80
2022-08-12T16:51:45.824Z,13.30
2022-08-12T16:54:36.206Z,14.55
2022-08-12T16:57:09.638Z,14.93
2022-08-12T16:59:53.318Z,14.32
2022-08-12T17:02:31.951Z,15.93
2022-08-12T17:05:04.878Z,15.65
2022-08-12T17:07:38.254Z,16.35
2022-08-12T17:10:18.338Z,14.80
2022-08-12T17:13:09.885Z,15.27
2022-08-12T17:15:57.267Z,14.35
2022-08-12T17:18:45.594Z,14.93
2022-08-12T17:21:20.082Z,15.48
2022-08-12T17:23:53.431Z,16.33
2022-08-12T17:26:27.955Z,18.52
2022-08-12T17:29:00.810Z,18.25
2022-08-12T17:31:59.365Z,17.95
2022-08-12T17:34:36.439Z,18.90
2022-08-12T17:37:07.410Z,20.58
2022-08-12T17:40:13.611Z,22.10
2022-08-12T17:42:32.488Z,20.40
2022-08-12T17:45:17.216Z,23.13
2022-08-12T17:48:01.018Z,20.08
2022-08-12T17:50:32.171Z,17.60
2022-08-12T17:53:01.163Z,17.00
2022-08-12T17:55:40.602Z,19.80
2022-08-12T17:58:36.849Z,19.92
2022-08-12T18:01:11.370Z,20.80
2022-08-12T18:04:05.090Z,20.05
2022-08-12T18:06:28.556Z,19.88
2022-08-12T18:09:08.623Z,20.80
2022-08-12T18:12:04.069Z,19.90
2022-08-12T18:14:36.655Z,19.77
2022-08-12T18:17:08.758Z,28.33
2022-08-12T18:20:03.727Z,27.38
2022-08-12T18:22:30.452Z,28.17
2022-08-12T18:25:04.229Z,29.38
2022-08-12T18:27:44.558Z,24.80
2022-08-12T18:30:20.503Z,23.65
2022-08-12T18:33:04.638Z,24.15
2022-08-12T18:35:47.064Z,22.60
2022-08-12T18:38:24.601Z,21.58
2022-08-12T18:41:20.930Z,23.23
2022-08-12T18:43:59.736Z,30.08
2022-08-12T18:46:35.961Z,29.75
2022-08-12T18:49:18.853Z,23.02
2022-08-12T18:52:02.263Z,22.70
2022-08-12T18:54:35.354Z,19.23
2022-08-12T18:57:19.572Z,20.92
2022-08-12T19:00:01.422Z,19.73
2022-08-12T19:02:33.923Z,21.95
2022-08-12T19:05:11.123Z,22.73
2022-08-12T19:08:00.939Z,25.45
2022-08-12T19:10:32.791Z,22.95
2022-08-12T19:13:23.114Z,26.25
2022-08-12T19:15:57.781Z,23.17
2022-08-12T19:18:29.824Z,23.63
2022-08-12T19:21:12.041Z,22.08
2022-08-12T19:23:44.528Z,22.63
2022-08-12T19:26:12.433Z,22.50
2022-08-12T19:28:41.459Z,23.30
2022-08-12T19:31:59.701Z,24.35
2022-08-12T19:38:03.870Z,24.45
2022-08-12T19:40:34.842Z,24.38
2022-08-12T19:43:19.337Z,28.77
2022-08-12T19:45:56.624Z,25.13
2022-08-12T19:48:30.785Z,27.05
2022-08-12T19:51:22.562Z,27.55
2022-08-12T19:53:57.445Z,28.08
2022-08-12T19:56:29.599Z,26.60
2022-08-12T19:59:18.709Z,26.60
2022-08-12T20:02:01.504Z,26.65
2022-08-12T20:04:39.036Z,28.67
2022-08-12T20:07:22.907Z,28.23
2022-08-12T20:09:53.922Z,27.23
2022-08-12T20:12:31.807Z,24.70
2022-08-12T20:15:05.443Z,23.58
2022-08-12T20:17:36.495Z,23.02
2022-08-12T20:20:27.779Z,22.55
2022-08-12T20:22:57.357Z,22.42
2022-08-12T20:25:51.837Z,21.33
2022-08-12T20:28:13.374Z,21.95
2022-08-12T20:30:53.380Z,21.67
2022-08-12T20:33:32.559Z,22.08
2022-08-12T20:36:41.168Z,21.35
2022-08-12T20:39:34.323Z,21.10
2022-08-12T20:41:59.002Z,21.20
2022-08-12T20:44:27.310Z,21.70
2022-08-12T20:46:58.299Z,21.83
2022-08-12T20:49:25.974Z,21.25
2022-08-12T20:52:01.881Z,21.25
2022-08-12T20:54:34.070Z,22.65
2022-08-12T20:57:07.531Z,20.67
2022-08-12T20:59:38.799Z,20.98
2022-08-12T21:02:15.963Z,20.48
2022-08-12T21:05:01.808Z,22.02
2022-08-12T21:07:51.482Z,22.55
2022-08-12T21:10:21.005Z,22.67
2022-08-12T21:12:50.962Z,24.20
2022-08-12T21:15:24.073Z,22.35
2022-08-12T21:18:09.193Z,23.20
2022-08-12T21:20:44.579Z,22.27
2022-08-12T21:23:15.733Z,21.75
2022-08-12T21:25:48.260Z,22.55
2022-08-12T21:28:21.106Z,23.00
2022-08-12T21:31:11.245Z,21.85
2022-08-12T21:33:58.417Z,22.10
2022-08-12T21:36:34.459Z,24.60
2022-08-12T21:39:18.974Z,23.17
2022-08-12T21:42:00.464Z,21.67
2022-08-12T21:45:43.866Z,22.13
2022-08-12T21:47:22.518Z,19.95
2022-08-12T21:50:06.547Z,20.33
2022-08-12T21:52:39.404Z,19.50
2022-08-12T21:55:17.935Z,19.90
2022-08-12T21:57:53.607Z,19.75
2022-08-12T22:00:32.907Z,20.13
2022-08-12T22:04:03.647Z,19.55
2022-08-12T22:06:31.135Z,18.80
2022-08-12T22:09:15.746Z,18.75
2022-08-12T22:11:58.638Z,18.55
2022-08-12T22:14:28.920Z,19.20
2022-08-12T22:16:57.704Z,19.42
2022-08-12T22:19:25.211Z,19.52
2022-08-12T22:21:56.302Z,18.90
2022-08-12T22:24:29.910Z,18.92
2022-08-12T22:27:08.243Z,18.95
2022-08-12T22:30:16.093Z,18.08
2022-08-12T22:32:50.787Z,18.48
2022-08-12T22:35:55.396Z,18.95
2022-08-12T22:38:21.393Z,18.52
2022-08-12T22:40:50.855Z,18.90
2022-08-12T22:43:44.736Z,19.17
2022-08-12T22:46:52.942Z,17.88
2022-08-12T22:49:36.580Z,18.77
2022-08-12T22:52:12.240Z,18.05
2022-08-12T22:54:46.449Z,18.70
2022-08-12T22:57:53.972Z,17.55
2022-08-12T23:00:24.108Z,18.02
2022-08-12T23:02:56.948Z,16.95
2022-08-12T23:05:56.772Z,17.85
2022-08-12T23:08:22.260Z,17.23
2022-08-12T23:10:51.354Z,17.92
2022-08-12T23:13:43.317Z,18.23
2022-08-12T23:16:28.003Z,18.20
2022-08-12T23:18:59.686Z,18.15
2022-08-12T23:24:17.090Z,17.33
2022-08-12T23:27:18.344Z,17.90
2022-08-12T23:30:17.823Z,17.40
2022-08-12T23:35:07.508Z,17.27
2022-08-12T23:37:46.693Z,18.08
2022-08-12T23:40:17.864Z,19.25
2022-08-12T23:42:45.881Z,18.42
2022-08-12T23:45:20.715Z,18.52
2022-08-12T23:48:00.679Z,18.80
2022-08-12T23:50:34.200Z,18.48
2022-08-12T23:53:14.037Z,18.02
2022-08-12T23:55:50.877Z,18.77
2022-08-12T23:58:23.199Z,18.00
